sensor_id;sensor_type;location;lat;lon;timestamp;P1;durP1;ratioP1;P2;durP2;ratioP2
70444;SDS011;57902;49.638;11.070;2023-05-07T00:02:03;3.90;;;1.70;;
70444;SDS011;57902;49.638;11.070;2023-05-07T00:04:38;3.97;;;1.70;;
70444;SDS011;57902;49.638;11.070;2023-05-07T00:07:07;5.90;;;2.35;;
70444;SDS011;57902;49.638;11.070;2023-05-07T00:09:35;8.63;;;3.45;;
70444;SDS011;57902;49.638;11.070;2023-05-07T00:12:02;5.53;;;2.38;;
70444;SDS011;57902;49.638;11.070;2023-05-07T00:14:29;5.93;;;2.17;;
70444;SDS011;57902;49.638;11.070;2023-05-07T00:16:55;7.65;;;3.80;;
70444;SDS011;57902;49.638;11.070;2023-05-07T00:19:22;6.65;;;2.00;;
70444;SDS011;57902;49.638;11.070;2023-05-07T00:21:48;5.28;;;2.30;;
70444;SDS011;57902;49.638;11.070;2023-05-07T00:24:15;4.03;;;1.88;;
70444;SDS011;57902;49.638;11.070;2023-05-07T00:26:41;4.07;;;1.90;;
70444;SDS011;57902;49.638;11.070;2023-05-07T00:29:08;3.85;;;1.67;;
70444;SDS011;57902;49.638;11.070;2023-05-07T00:31:34;5.90;;;1.83;;
70444;SDS011;57902;49.638;11.070;2023-05-07T00:34:01;5.53;;;1.60;;
70444;SDS011;57902;49.638;11.070;2023-05-07T00:36:28;5.20;;;2.00;;
70444;SDS011;57902;49.638;11.070;2023-05-07T00:38:56;4.55;;;1.92;;
70444;SDS011;57902;49.638;11.070;2023-05-07T00:41:26;4.30;;;1.83;;
70444;SDS011;57902;49.638;11.070;2023-05-07T00:43:52;3.67;;;1.80;;
70444;SDS011;57902;49.638;11.070;2023-05-07T00:46:20;4.05;;;1.90;;
70444;SDS011;57902;49.638;11.070;2023-05-07T00:48:47;4.60;;;1.85;;
70444;SDS011;57902;49.638;11.070;2023-05-07T00:51:14;6.25;;;1.92;;
70444;SDS011;57902;49.638;11.070;2023-05-07T00:53:41;3.63;;;1.63;;
70444;SDS011;57902;49.638;11.070;2023-05-07T00:56:08;4.53;;;2.13;;
70444;SDS011;57902;49.638;11.070;2023-05-07T00:58:34;4.28;;;2.05;;
70444;SDS011;57902;49.638;11.070;2023-05-07T01:01:01;4.88;;;2.03;;
70444;SDS011;57902;49.638;11.070;2023-05-07T01:03:28;4.00;;;1.92;;
70444;SDS011;57902;49.638;11.070;2023-05-07T01:05:55;6.15;;;2.10;;
70444;SDS011;57902;49.638;11.070;2023-05-07T01:08:24;5.18;;;1.85;;
70444;SDS011;57902;49.638;11.070;2023-05-07T01:10:54;4.45;;;1.95;;
70444;SDS011;57902;49.638;11.070;2023-05-07T01:13:22;6.47;;;2.00;;
70444;SDS011;57902;49.638;11.070;2023-05-07T01:15:50;4.70;;;2.00;;
70444;SDS011;57902;49.638;11.070;2023-05-07T01:18:17;6.60;;;2.25;;
70444;SDS011;57902;49.638;11.070;2023-05-07T01:20:43;4.97;;;2.22;;
70444;SDS011;57902;49.638;11.070;2023-05-07T01:23:11;5.25;;;2.10;;
70444;SDS011;57902;49.638;11.070;2023-05-07T01:25:38;4.90;;;2.13;;
70444;SDS011;57902;49.638;11.070;2023-05-07T01:28:05;5.03;;;2.20;;
70444;SDS011;57902;49.638;11.070;2023-05-07T01:30:32;5.65;;;1.80;;
70444;SDS011;57902;49.638;11.070;2023-05-07T01:33:01;4.80;;;2.03;;
70444;SDS011;57902;49.638;11.070;2023-05-07T01:35:32;4.78;;;2.03;;
70444;SDS011;57902;49.638;11.070;2023-05-07T01:38:03;4.82;;;1.88;;
70444;SDS011;57902;49.638;11.070;2023-05-07T01:43:00;4.25;;;2.15;;
70444;SDS011;57902;49.638;11.070;2023-05-07T01:45:29;4.28;;;2.03;;
70444;SDS011;57902;49.638;11.070;2023-05-07T01:47:57;4.53;;;2.00;;
70444;SDS011;57902;49.638;11.070;2023-05-07T01:50:25;4.28;;;2.08;;
70444;SDS011;57902;49.638;11.070;2023-05-07T01:52:53;6.05;;;2.15;;
70444;SDS011;57902;49.638;11.070;2023-05-07T01:55:19;3.88;;;2.15;;
70444;SDS011;57902;49.638;11.070;2023-05-07T01:57:46;4.75;;;2.15;;
70444;SDS011;57902;49.638;11.070;2023-05-07T02:00:13;4.80;;;2.00;;
70444;SDS011;57902;49.638;11.070;2023-05-07T02:02:39;6.60;;;2.30;;
70444;SDS011;57902;49.638;11.070;2023-05-07T02:05:06;5.85;;;2.55;;
70444;SDS011;57902;49.638;11.070;2023-05-07T02:07:33;5.55;;;2.53;;
70444;SDS011;57902;49.638;11.070;2023-05-07T02:09:59;5.65;;;2.33;;
70444;SDS011;57902;49.638;11.070;2023-05-07T02:12:26;5.07;;;2.35;;
70444;SDS011;57902;49.638;11.070;2023-05-07T02:14:52;4.78;;;2.00;;
70444;SDS011;57902;49.638;11.070;2023-05-07T02:17:19;4.78;;;2.30;;
70444;SDS011;57902;49.638;11.070;2023-05-07T02:19:45;5.05;;;2.40;;
70444;SDS011;57902;49.638;11.070;2023-05-07T02:22:12;7.93;;;2.25;;
70444;SDS011;57902;49.638;11.070;2023-05-07T02:24:38;5.55;;;2.38;;
70444;SDS011;57902;49.638;11.070;2023-05-07T02:27:05;6.45;;;2.25;;
70444;SDS011;57902;49.638;11.070;2023-05-07T02:29:31;4.68;;;2.20;;
70444;SDS011;57902;49.638;11.070;2023-05-07T02:31:58;6.68;;;2.80;;
70444;SDS011;57902;49.638;11.070;2023-05-07T02:34:26;5.28;;;2.40;;
70444;SDS011;57902;49.638;11.070;2023-05-07T02:36:53;6.43;;;2.60;;
70444;SDS011;57902;49.638;11.070;2023-05-07T02:39:19;5.88;;;2.50;;
70444;SDS011;57902;49.638;11.070;2023-05-07T02:41:45;6.15;;;2.78;;
70444;SDS011;57902;49.638;11.070;2023-05-07T02:44:12;5.07;;;2.45;;
70444;SDS011;57902;49.638;11.070;2023-05-07T02:46:38;5.75;;;2.35;;
70444;SDS011;57902;49.638;11.070;2023-05-07T02:49:05;6.07;;;2.50;;
70444;SDS011;57902;49.638;11.070;2023-05-07T02:51:32;5.55;;;2.25;;
70444;SDS011;57902;49.638;11.070;2023-05-07T02:53:58;5.97;;;2.88;;
70444;SDS011;57902;49.638;11.070;2023-05-07T02:56:25;8.10;;;2.88;;
70444;SDS011;57902;49.638;11.070;2023-05-07T02:58:52;7.18;;;2.90;;
70444;SDS011;57902;49.638;11.070;2023-05-07T03:01:19;5.25;;;2.58;;
70444;SDS011;57902;49.638;11.070;2023-05-07T03:03:47;6.80;;;2.78;;
70444;SDS011;57902;49.638;11.070;2023-05-07T03:06:13;5.65;;;2.65;;
70444;SDS011;57902;49.638;11.070;2023-05-07T03:08:40;5.70;;;2.90;;
70444;SDS011;57902;49.638;11.070;2023-05-07T03:11:07;6.28;;;2.80;;
70444;SDS011;57902;49.638;11.070;2023-05-07T03:13:33;5.93;;;2.90;;
70444;SDS011;57902;49.638;11.070;2023-05-07T03:16:00;6.00;;;2.53;;
70444;SDS011;57902;49.638;11.070;2023-05-07T03:18:26;5.10;;;2.60;;
70444;SDS011;57902;49.638;11.070;2023-05-07T03:20:53;5.38;;;2.55;;
70444;SDS011;57902;49.638;11.070;2023-05-07T03:23:19;6.38;;;2.70;;
70444;SDS011;57902;49.638;11.070;2023-05-07T03:25:49;5.43;;;2.70;;
70444;SDS011;57902;49.638;11.070;2023-05-07T03:28:16;6.18;;;3.00;;
70444;SDS011;57902;49.638;11.070;2023-05-07T03:30:42;5.90;;;2.97;;
70444;SDS011;57902;49.638;11.070;2023-05-07T03:33:09;5.30;;;2.88;;
70444;SDS011;57902;49.638;11.070;2023-05-07T03:35:35;7.07;;;3.03;;
70444;SDS011;57902;49.638;11.070;2023-05-07T03:38:02;5.20;;;2.63;;
70444;SDS011;57902;49.638;11.070;2023-05-07T03:40:30;5.22;;;2.88;;
70444;SDS011;57902;49.638;11.070;2023-05-07T03:42:56;6.55;;;2.88;;
70444;SDS011;57902;49.638;11.070;2023-05-07T03:45:22;8.32;;;2.80;;
70444;SDS011;57902;49.638;11.070;2023-05-07T03:47:49;7.70;;;3.22;;
70444;SDS011;57902;49.638;11.070;2023-05-07T03:50:16;7.15;;;2.97;;
70444;SDS011;57902;49.638;11.070;2023-05-07T03:52:43;6.25;;;2.63;;
70444;SDS011;57902;49.638;11.070;2023-05-07T03:55:09;6.47;;;3.05;;
70444;SDS011;57902;49.638;11.070;2023-05-07T03:57:35;7.68;;;3.50;;
70444;SDS011;57902;49.638;11.070;2023-05-07T04:00:02;6.57;;;3.40;;
70444;SDS011;57902;49.638;11.070;2023-05-07T04:02:30;6.57;;;3.63;;
70444;SDS011;57902;49.638;11.070;2023-05-07T04:04:57;6.82;;;3.42;;
70444;SDS011;57902;49.638;11.070;2023-05-07T04:07:23;7.55;;;3.72;;
70444;SDS011;57902;49.638;11.070;2023-05-07T04:09:50;7.10;;;3.53;;
70444;SDS011;57902;49.638;11.070;2023-05-07T04:12:16;6.75;;;3.80;;
70444;SDS011;57902;49.638;11.070;2023-05-07T04:14:43;7.72;;;3.72;;
70444;SDS011;57902;49.638;11.070;2023-05-07T04:17:09;7.18;;;4.00;;
70444;SDS011;57902;49.638;11.070;2023-05-07T04:19:36;6.75;;;3.53;;
70444;SDS011;57902;49.638;11.070;2023-05-07T04:22:03;7.93;;;3.60;;
70444;SDS011;57902;49.638;11.070;2023-05-07T04:24:32;8.07;;;3.80;;
70444;SDS011;57902;49.638;11.070;2023-05-07T04:26:59;6.80;;;3.58;;
70444;SDS011;57902;49.638;11.070;2023-05-07T04:29:25;7.00;;;3.67;;
70444;SDS011;57902;49.638;11.070;2023-05-07T04:31:52;8.32;;;4.13;;
70444;SDS011;57902;49.638;11.070;2023-05-07T04:34:18;7.47;;;3.45;;
70444;SDS011;57902;49.638;11.070;2023-05-07T04:36:45;7.10;;;3.70;;
70444;SDS011;57902;49.638;11.070;2023-05-07T04:39:12;8.27;;;3.53;;
70444;SDS011;57902;49.638;11.070;2023-05-07T04:41:39;7.55;;;3.67;;
70444;SDS011;57902;49.638;11.070;2023-05-07T04:44:05;6.85;;;3.70;;
70444;SDS011;57902;49.638;11.070;2023-05-07T04:46:32;10.48;;;3.72;;
70444;SDS011;57902;49.638;11.070;2023-05-07T04:48:59;7.78;;;3.67;;
70444;SDS011;57902;49.638;11.070;2023-05-07T04:51:25;6.85;;;3.80;;
70444;SDS011;57902;49.638;11.070;2023-05-07T04:53:52;7.28;;;3.95;;
70444;SDS011;57902;49.638;11.070;2023-05-07T04:56:18;7.70;;;3.53;;
70444;SDS011;57902;49.638;11.070;2023-05-07T04:58:46;7.50;;;3.90;;
70444;SDS011;57902;49.638;11.070;2023-05-07T05:01:13;6.82;;;3.67;;
70444;SDS011;57902;49.638;11.070;2023-05-07T05:03:39;5.85;;;3.25;;
70444;SDS011;57902;49.638;11.070;2023-05-07T05:06:07;6.43;;;3.80;;
70444;SDS011;57902;49.638;11.070;2023-05-07T05:08:33;7.68;;;3.28;;
70444;SDS011;57902;49.638;11.070;2023-05-07T05:11:00;8.05;;;4.22;;
70444;SDS011;57902;49.638;11.070;2023-05-07T05:15:54;8.88;;;4.22;;
70444;SDS011;57902;49.638;11.070;2023-05-07T05:18:22;6.85;;;3.85;;
70444;SDS011;57902;49.638;11.070;2023-05-07T05:20:48;6.75;;;3.92;;
70444;SDS011;57902;49.638;11.070;2023-05-07T05:23:15;8.73;;;4.68;;
70444;SDS011;57902;49.638;11.070;2023-05-07T05:25:41;8.88;;;4.53;;
70444;SDS011;57902;49.638;11.070;2023-05-07T05:28:08;11.52;;;4.93;;
70444;SDS011;57902;49.638;11.070;2023-05-07T05:30:34;9.57;;;5.22;;
70444;SDS011;57902;49.638;11.070;2023-05-07T05:33:01;13.07;;;5.22;;
70444;SDS011;57902;49.638;11.070;2023-05-07T05:35:29;9.52;;;4.93;;
70444;SDS011;57902;49.638;11.070;2023-05-07T05:37:55;11.13;;;5.63;;
70444;SDS011;57902;49.638;11.070;2023-05-07T05:40:22;8.45;;;4.93;;
70444;SDS011;57902;49.638;11.070;2023-05-07T05:42:48;8.93;;;4.95;;
70444;SDS011;57902;49.638;11.070;2023-05-07T05:45:14;9.10;;;5.30;;
70444;SDS011;57902;49.638;11.070;2023-05-07T05:47:41;8.88;;;4.82;;
70444;SDS011;57902;49.638;11.070;2023-05-07T05:50:10;11.52;;;5.10;;
70444;SDS011;57902;49.638;11.070;2023-05-07T05:52:37;9.15;;;5.18;;
70444;SDS011;57902;49.638;11.070;2023-05-07T05:55:04;9.68;;;5.68;;
70444;SDS011;57902;49.638;11.070;2023-05-07T05:57:31;10.15;;;5.35;;
70444;SDS011;57902;49.638;11.070;2023-05-07T05:59:58;10.60;;;5.60;;
70444;SDS011;57902;49.638;11.070;2023-05-07T06:02:24;10.27;;;5.45;;
70444;SDS011;57902;49.638;11.070;2023-05-07T06:04:51;10.50;;;5.43;;
70444;SDS011;57902;49.638;11.070;2023-05-07T06:07:17;10.88;;;5.32;;
70444;SDS011;57902;49.638;11.070;2023-05-07T06:09:44;9.48;;;5.32;;
70444;SDS011;57902;49.638;11.070;2023-05-07T06:12:10;11.00;;;5.60;;
70444;SDS011;57902;49.638;11.070;2023-05-07T06:14:37;10.77;;;5.97;;
70444;SDS011;57902;49.638;11.070;2023-05-07T06:17:04;10.50;;;4.70;;
70444;SDS011;57902;49.638;11.070;2023-05-07T06:19:31;9.32;;;4.70;;
70444;SDS011;57902;49.638;11.070;2023-05-07T06:21:58;10.18;;;5.05;;
70444;SDS011;57902;49.638;11.070;2023-05-07T06:24:24;8.23;;;4.93;;
70444;SDS011;57902;49.638;11.070;2023-05-07T06:26:51;9.80;;;5.70;;
70444;SDS011;57902;49.638;11.070;2023-05-07T06:29:17;10.00;;;5.35;;
70444;SDS011;57902;49.638;11.070;2023-05-07T06:31:44;8.60;;;5.00;;
70444;SDS011;57902;49.638;11.070;2023-05-07T06:34:11;8.23;;;5.15;;
70444;SDS011;57902;49.638;11.070;2023-05-07T06:36:40;8.80;;;4.90;;
70444;SDS011;57902;49.638;11.070;2023-05-07T06:39:07;8.23;;;5.05;;
70444;SDS011;57902;49.638;11.070;2023-05-07T06:41:33;10.32;;;5.43;;
70444;SDS011;57902;49.638;11.070;2023-05-07T06:44:02;9.70;;;4.90;;
70444;SDS011;57902;49.638;11.070;2023-05-07T06:46:29;12.55;;;5.57;;
70444;SDS011;57902;49.638;11.070;2023-05-07T06:48:56;9.43;;;5.30;;
70444;SDS011;57902;49.638;11.070;2023-05-07T06:51:23;10.40;;;5.43;;
70444;SDS011;57902;49.638;11.070;2023-05-07T06:53:49;11.73;;;5.38;;
70444;SDS011;57902;49.638;11.070;2023-05-07T06:56:16;10.13;;;5.25;;
70444;SDS011;57902;49.638;11.070;2023-05-07T06:58:42;10.63;;;5.05;;
70444;SDS011;57902;49.638;11.070;2023-05-07T07:01:09;8.98;;;4.70;;
70444;SDS011;57902;49.638;11.070;2023-05-07T07:03:35;8.07;;;4.88;;
70444;SDS011;57902;49.638;11.070;2023-05-07T07:06:02;10.27;;;4.95;;
70444;SDS011;57902;49.638;11.070;2023-05-07T07:08:29;12.30;;;5.22;;
70444;SDS011;57902;49.638;11.070;2023-05-07T07:10:58;10.68;;;5.13;;
70444;SDS011;57902;49.638;11.070;2023-05-07T07:13:24;8.63;;;4.82;;
70444;SDS011;57902;49.638;11.070;2023-05-07T07:15:51;10.27;;;5.20;;
70444;SDS011;57902;49.638;11.070;2023-05-07T07:18:19;10.55;;;4.80;;
70444;SDS011;57902;49.638;11.070;2023-05-07T07:20:46;9.10;;;4.97;;
70444;SDS011;57902;49.638;11.070;2023-05-07T07:23:17;9.40;;;4.93;;
70444;SDS011;57902;49.638;11.070;2023-05-07T07:25:43;10.63;;;5.07;;
70444;SDS011;57902;49.638;11.070;2023-05-07T07:28:10;9.68;;;4.38;;
70444;SDS011;57902;49.638;11.070;2023-05-07T07:30:37;11.07;;;4.78;;
70444;SDS011;57902;49.638;11.070;2023-05-07T07:33:04;8.35;;;4.57;;
70444;SDS011;57902;49.638;11.070;2023-05-07T07:35:31;10.05;;;4.82;;
70444;SDS011;57902;49.638;11.070;2023-05-07T07:37:58;9.18;;;4.32;;
70444;SDS011;57902;49.638;11.070;2023-05-07T07:40:25;7.88;;;4.25;;
70444;SDS011;57902;49.638;11.070;2023-05-07T07:42:52;7.45;;;4.25;;
70444;SDS011;57902;49.638;11.070;2023-05-07T07:45:22;7.45;;;4.53;;
70444;SDS011;57902;49.638;11.070;2023-05-07T07:47:49;8.30;;;4.65;;
70444;SDS011;57902;49.638;11.070;2023-05-07T07:50:15;10.25;;;4.90;;
70444;SDS011;57902;49.638;11.070;2023-05-07T07:52:57;9.00;;;4.68;;
70444;SDS011;57902;49.638;11.070;2023-05-07T07:55:23;8.98;;;4.38;;
70444;SDS011;57902;49.638;11.070;2023-05-07T07:57:52;7.50;;;4.45;;
70444;SDS011;57902;49.638;11.070;2023-05-07T08:00:21;9.40;;;4.70;;
70444;SDS011;57902;49.638;11.070;2023-05-07T08:02:48;9.57;;;4.15;;
70444;SDS011;57902;49.638;11.070;2023-05-07T08:05:15;9.48;;;4.50;;
70444;SDS011;57902;49.638;11.070;2023-05-07T08:07:44;7.72;;;4.50;;
70444;SDS011;57902;49.638;11.070;2023-05-07T08:10:12;11.05;;;4.88;;
70444;SDS011;57902;49.638;11.070;2023-05-07T08:12:39;8.88;;;4.40;;
70444;SDS011;57902;49.638;11.070;2023-05-07T08:15:08;8.07;;;4.00;;
70444;SDS011;57902;49.638;11.070;2023-05-07T08:17:35;6.55;;;3.88;;
70444;SDS011;57902;49.638;11.070;2023-05-07T08:20:02;7.95;;;4.57;;
70444;SDS011;57902;49.638;11.070;2023-05-07T08:22:28;7.15;;;3.70;;
70444;SDS011;57902;49.638;11.070;2023-05-07T08:24:55;7.65;;;4.15;;
70444;SDS011;57902;49.638;11.070;2023-05-07T08:27:22;8.35;;;4.60;;
70444;SDS011;57902;49.638;11.070;2023-05-07T08:29:48;9.02;;;4.03;;
70444;SDS011;57902;49.638;11.070;2023-05-07T08:32:15;7.22;;;4.10;;
70444;SDS011;57902;49.638;11.070;2023-05-07T08:34:42;6.85;;;3.97;;
70444;SDS011;57902;49.638;11.070;2023-05-07T08:37:09;9.27;;;4.30;;
70444;SDS011;57902;49.638;11.070;2023-05-07T08:39:35;7.95;;;3.92;;
70444;SDS011;57902;49.638;11.070;2023-05-07T08:42:02;8.23;;;4.30;;
70444;SDS011;57902;49.638;11.070;2023-05-07T08:44:34;11.27;;;4.57;;
70444;SDS011;57902;49.638;11.070;2023-05-07T08:47:03;9.90;;;4.00;;
70444;SDS011;57902;49.638;11.070;2023-05-07T08:49:33;11.90;;;4.20;;
70444;SDS011;57902;49.638;11.070;2023-05-07T08:52:00;6.95;;;3.90;;
70444;SDS011;57902;49.638;11.070;2023-05-07T08:54:27;6.55;;;3.70;;
70444;SDS011;57902;49.638;11.070;2023-05-07T08:56:58;8.15;;;3.55;;
70444;SDS011;57902;49.638;11.070;2023-05-07T08:59:25;8.32;;;4.15;;
70444;SDS011;57902;49.638;11.070;2023-05-07T09:01:52;7.60;;;3.95;;
70444;SDS011;57902;49.638;11.070;2023-05-07T09:04:18;8.48;;;4.30;;
70444;SDS011;57902;49.638;11.070;2023-05-07T09:06:48;7.80;;;3.90;;
70444;SDS011;57902;49.638;11.070;2023-05-07T09:09:17;9.80;;;3.85;;
70444;SDS011;57902;49.638;11.070;2023-05-07T09:11:46;7.32;;;4.18;;
70444;SDS011;57902;49.638;11.070;2023-05-07T09:14:13;7.43;;;4.10;;
70444;SDS011;57902;49.638;11.070;2023-05-07T09:16:39;6.32;;;3.55;;
70444;SDS011;57902;49.638;11.070;2023-05-07T09:19:11;7.68;;;3.97;;
70444;SDS011;57902;49.638;11.070;2023-05-07T09:21:37;7.93;;;3.83;;
70444;SDS011;57902;49.638;11.070;2023-05-07T09:24:04;11.32;;;4.07;;
70444;SDS011;57902;49.638;11.070;2023-05-07T09:26:31;7.35;;;4.03;;
70444;SDS011;57902;49.638;11.070;2023-05-07T09:28:59;9.20;;;3.90;;
70444;SDS011;57902;49.638;11.070;2023-05-07T09:31:25;8.43;;;4.38;;
70444;SDS011;57902;49.638;11.070;2023-05-07T09:33:52;7.70;;;4.30;;
70444;SDS011;57902;49.638;11.070;2023-05-07T09:36:19;6.72;;;3.95;;
70444;SDS011;57902;49.638;11.070;2023-05-07T09:38:46;7.95;;;3.63;;
70444;SDS011;57902;49.638;11.070;2023-05-07T09:41:13;7.57;;;3.35;;
70444;SDS011;57902;49.638;11.070;2023-05-07T09:43:39;8.40;;;3.72;;
70444;SDS011;57902;49.638;11.070;2023-05-07T09:46:13;6.65;;;3.75;;
70444;SDS011;57902;49.638;11.070;2023-05-07T09:48:45;10.02;;;4.10;;
70444;SDS011;57902;49.638;11.070;2023-05-07T09:51:24;7.60;;;3.80;;
70444;SDS011;57902;49.638;11.070;2023-05-07T09:53:56;7.57;;;4.00;;
70444;SDS011;57902;49.638;11.070;2023-05-07T09:56:23;6.05;;;3.40;;
70444;SDS011;57902;49.638;11.070;2023-05-07T09:58:52;8.77;;;3.95;;
70444;SDS011;57902;49.638;11.070;2023-05-07T10:01:20;7.13;;;3.63;;
70444;SDS011;57902;49.638;11.070;2023-05-07T10:03:48;7.50;;;3.97;;
70444;SDS011;57902;49.638;11.070;2023-05-07T10:06:17;7.57;;;3.95;;
70444;SDS011;57902;49.638;11.070;2023-05-07T10:11:19;7.65;;;3.67;;
70444;SDS011;57902;49.638;11.070;2023-05-07T10:13:46;9.43;;;3.67;;
70444;SDS011;57902;49.638;11.070;2023-05-07T10:16:14;7.65;;;3.40;;
70444;SDS011;57902;49.638;11.070;2023-05-07T10:18:41;6.50;;;3.50;;
70444;SDS011;57902;49.638;11.070;2023-05-07T10:21:18;7.07;;;3.75;;
70444;SDS011;57902;49.638;11.070;2023-05-07T10:23:48;6.18;;;3.20;;
70444;SDS011;57902;49.638;11.070;2023-05-07T10:26:17;5.68;;;3.40;;
70444;SDS011;57902;49.638;11.070;2023-05-07T10:28:47;5.80;;;2.90;;
70444;SDS011;57902;49.638;11.070;2023-05-07T10:31:27;7.90;;;3.70;;
70444;SDS011;57902;49.638;11.070;2023-05-07T10:34:17;6.68;;;3.00;;
70444;SDS011;57902;49.638;11.070;2023-05-07T10:36:48;10.38;;;3.50;;
70444;SDS011;57902;49.638;11.070;2023-05-07T10:39:16;7.18;;;3.10;;
70444;SDS011;57902;49.638;11.070;2023-05-07T10:41:43;7.32;;;3.03;;
70444;SDS011;57902;49.638;11.070;2023-05-07T10:44:24;5.78;;;3.10;;
70444;SDS011;57902;49.638;11.070;2023-05-07T10:47:09;5.30;;;2.85;;
70444;SDS011;57902;49.638;11.070;2023-05-07T10:54:44;5.03;;;2.65;;
70444;SDS011;57902;49.638;11.070;2023-05-07T11:00:03;6.22;;;2.92;;
70444;SDS011;57902;49.638;11.070;2023-05-07T11:03:07;6.88;;;2.90;;
70444;SDS011;57902;49.638;11.070;2023-05-07T11:05:34;5.28;;;2.90;;
70444;SDS011;57902;49.638;11.070;2023-05-07T11:08:04;5.97;;;2.78;;
70444;SDS011;57902;49.638;11.070;2023-05-07T11:10:50;6.60;;;2.92;;
70444;SDS011;57902;49.638;11.070;2023-05-07T11:16:21;5.80;;;2.75;;
70444;SDS011;57902;49.638;11.070;2023-05-07T11:18:54;6.00;;;2.80;;
70444;SDS011;57902;49.638;11.070;2023-05-07T11:23:58;6.65;;;2.35;;
70444;SDS011;57902;49.638;11.070;2023-05-07T11:26:26;4.82;;;2.50;;
70444;SDS011;57902;49.638;11.070;2023-05-07T11:29:01;5.15;;;2.50;;
70444;SDS011;57902;49.638;11.070;2023-05-07T11:31:28;6.53;;;2.85;;
70444;SDS011;57902;49.638;11.070;2023-05-07T11:36:23;6.70;;;2.55;;
70444;SDS011;57902;49.638;11.070;2023-05-07T11:38:49;7.13;;;2.70;;
70444;SDS011;57902;49.638;11.070;2023-05-07T11:41:32;5.40;;;2.42;;
70444;SDS011;57902;49.638;11.070;2023-05-07T11:44:10;5.72;;;2.60;;
70444;SDS011;57902;49.638;11.070;2023-05-07T11:46:36;5.50;;;2.28;;
70444;SDS011;57902;49.638;11.070;2023-05-07T11:49:03;5.70;;;2.30;;
70444;SDS011;57902;49.638;11.070;2023-05-07T11:51:33;6.55;;;2.70;;
70444;SDS011;57902;49.638;11.070;2023-05-07T11:53:59;5.15;;;2.17;;
70444;SDS011;57902;49.638;11.070;2023-05-07T11:56:28;6.28;;;2.40;;
70444;SDS011;57902;49.638;11.070;2023-05-07T11:58:55;8.02;;;2.55;;
70444;SDS011;57902;49.638;11.070;2023-05-07T12:01:21;6.75;;;2.80;;
70444;SDS011;57902;49.638;11.070;2023-05-07T12:03:48;4.97;;;2.38;;
70444;SDS011;57902;49.638;11.070;2023-05-07T12:08:54;5.25;;;2.00;;
70444;SDS011;57902;49.638;11.070;2023-05-07T12:11:24;4.63;;;2.33;;
70444;SDS011;57902;49.638;11.070;2023-05-07T12:13:53;4.47;;;2.17;;
70444;SDS011;57902;49.638;11.070;2023-05-07T12:16:24;4.38;;;2.17;;
70444;SDS011;57902;49.638;11.070;2023-05-07T12:18:51;6.32;;;2.58;;
70444;SDS011;57902;49.638;11.070;2023-05-07T12:21:21;6.22;;;2.30;;
70444;SDS011;57902;49.638;11.070;2023-05-07T12:23:48;7.72;;;2.50;;
70444;SDS011;57902;49.638;11.070;2023-05-07T12:26:14;5.13;;;2.60;;
70444;SDS011;57902;49.638;11.070;2023-05-07T12:28:41;5.15;;;2.30;;
70444;SDS011;57902;49.638;11.070;2023-05-07T12:31:07;6.65;;;3.05;;
70444;SDS011;57902;49.638;11.070;2023-05-07T12:33:34;6.18;;;2.90;;
70444;SDS011;57902;49.638;11.070;2023-05-07T12:36:08;4.70;;;2.47;;
70444;SDS011;57902;49.638;11.070;2023-05-07T12:38:35;5.85;;;2.60;;
70444;SDS011;57902;49.638;11.070;2023-05-07T12:41:07;5.68;;;2.67;;
70444;SDS011;57902;49.638;11.070;2023-05-07T12:43:36;4.75;;;2.20;;
70444;SDS011;57902;49.638;11.070;2023-05-07T12:46:03;6.65;;;2.40;;
70444;SDS011;57902;49.638;11.070;2023-05-07T12:48:32;7.80;;;3.20;;
70444;SDS011;57902;49.638;11.070;2023-05-07T12:50:59;6.45;;;3.00;;
70444;SDS011;57902;49.638;11.070;2023-05-07T12:53:28;4.78;;;2.30;;
70444;SDS011;57902;49.638;11.070;2023-05-07T12:55:56;4.57;;;2.20;;
70444;SDS011;57902;49.638;11.070;2023-05-07T12:58:28;9.70;;;4.28;;
70444;SDS011;57902;49.638;11.070;2023-05-07T13:00:57;9.50;;;4.47;;
70444;SDS011;57902;49.638;11.070;2023-05-07T13:03:41;4.55;;;2.53;;
70444;SDS011;57902;49.638;11.070;2023-05-07T13:06:14;4.55;;;2.30;;
70444;SDS011;57902;49.638;11.070;2023-05-07T13:08:41;10.38;;;5.00;;
70444;SDS011;57902;49.638;11.070;2023-05-07T13:11:11;5.45;;;2.05;;
70444;SDS011;57902;49.638;11.070;2023-05-07T13:13:39;5.38;;;2.30;;
70444;SDS011;57902;49.638;11.070;2023-05-07T13:18:34;4.03;;;1.90;;
70444;SDS011;57902;49.638;11.070;2023-05-07T13:21:01;4.18;;;2.10;;
70444;SDS011;57902;49.638;11.070;2023-05-07T13:23:28;4.25;;;1.92;;
70444;SDS011;57902;49.638;11.070;2023-05-07T13:25:54;3.70;;;1.70;;
70444;SDS011;57902;49.638;11.070;2023-05-07T13:28:23;4.05;;;1.70;;
70444;SDS011;57902;49.638;11.070;2023-05-07T13:30:50;3.53;;;1.75;;
70444;SDS011;57902;49.638;11.070;2023-05-07T13:33:18;6.43;;;3.00;;
70444;SDS011;57902;49.638;11.070;2023-05-07T13:35:44;6.50;;;2.55;;
70444;SDS011;57902;49.638;11.070;2023-05-07T13:38:11;3.67;;;1.38;;
70444;SDS011;57902;49.638;11.070;2023-05-07T13:40:37;3.03;;;1.40;;
70444;SDS011;57902;49.638;11.070;2023-05-07T13:43:05;2.42;;;1.30;;
70444;SDS011;57902;49.638;11.070;2023-05-07T13:45:31;2.38;;;1.35;;
70444;SDS011;57902;49.638;11.070;2023-05-07T13:47:58;4.78;;;1.52;;
70444;SDS011;57902;49.638;11.070;2023-05-07T13:50:25;3.42;;;1.67;;
70444;SDS011;57902;49.638;11.070;2023-05-07T13:52:53;3.65;;;1.60;;
70444;SDS011;57902;49.638;11.070;2023-05-07T13:55:20;3.78;;;1.70;;
70444;SDS011;57902;49.638;11.070;2023-05-07T13:57:47;3.65;;;1.80;;
70444;SDS011;57902;49.638;11.070;2023-05-07T14:00:14;3.70;;;1.67;;
70444;SDS011;57902;49.638;11.070;2023-05-07T14:02:42;3.45;;;1.67;;
70444;SDS011;57902;49.638;11.070;2023-05-07T14:05:09;5.22;;;1.58;;
70444;SDS011;57902;49.638;11.070;2023-05-07T14:07:36;4.35;;;1.70;;
70444;SDS011;57902;49.638;11.070;2023-05-07T14:10:03;3.25;;;1.70;;
70444;SDS011;57902;49.638;11.070;2023-05-07T14:12:31;4.35;;;2.00;;
70444;SDS011;57902;49.638;11.070;2023-05-07T14:14:58;5.60;;;2.17;;
70444;SDS011;57902;49.638;11.070;2023-05-07T14:17:24;5.15;;;1.98;;
70444;SDS011;57902;49.638;11.070;2023-05-07T14:19:51;4.22;;;2.10;;
70444;SDS011;57902;49.638;11.070;2023-05-07T14:22:20;4.07;;;2.08;;
70444;SDS011;57902;49.638;11.070;2023-05-07T14:24:49;4.60;;;2.00;;
70444;SDS011;57902;49.638;11.070;2023-05-07T14:27:36;4.30;;;2.25;;
70444;SDS011;57902;49.638;11.070;2023-05-07T14:30:08;4.63;;;2.30;;
70444;SDS011;57902;49.638;11.070;2023-05-07T14:32:35;4.95;;;2.13;;
70444;SDS011;57902;49.638;11.070;2023-05-07T14:35:02;4.95;;;2.25;;
70444;SDS011;57902;49.638;11.070;2023-05-07T14:37:29;5.03;;;2.20;;
70444;SDS011;57902;49.638;11.070;2023-05-07T14:39:55;8.48;;;2.45;;
70444;SDS011;57902;49.638;11.070;2023-05-07T14:42:22;4.40;;;2.22;;
70444;SDS011;57902;49.638;11.070;2023-05-07T14:47:34;5.10;;;1.95;;
70444;SDS011;57902;49.638;11.070;2023-05-07T14:50:01;4.88;;;1.88;;
70444;SDS011;57902;49.638;11.070;2023-05-07T14:52:28;3.80;;;1.80;;
70444;SDS011;57902;49.638;11.070;2023-05-07T14:54:54;11.38;;;2.60;;
70444;SDS011;57902;49.638;11.070;2023-05-07T14:57:21;4.40;;;1.80;;
70444;SDS011;57902;49.638;11.070;2023-05-07T14:59:47;5.25;;;2.10;;
70444;SDS011;57902;49.638;11.070;2023-05-07T15:02:14;4.07;;;1.80;;
70444;SDS011;57902;49.638;11.070;2023-05-07T15:04:41;4.60;;;1.75;;
70444;SDS011;57902;49.638;11.070;2023-05-07T15:07:12;4.35;;;1.95;;
70444;SDS011;57902;49.638;11.070;2023-05-07T15:09:42;5.15;;;2.13;;